sensor_id;sensor_type;location;lat;lon;timestamp;temperature;humidity
14733;DHT22;7457;50.960;6.830;2022-08-21T00:00:35;16.50;93.70
14733;DHT22;7457;50.960;6.830;2022-08-21T00:03:06;16.40;93.90
14733;DHT22;7457;50.960;6.830;2022-08-21T00:05:35;16.40;94.10
14733;DHT22;7457;50.960;6.830;2022-08-21T00:08:01;16.30;94.20
14733;DHT22;7457;50.960;6.830;2022-08-21T00:10:27;16.30;94.30
14733;DHT22;7457;50.960;6.830;2022-08-21T00:12:53;16.20;94.30
14733;DHT22;7457;50.960;6.830;2022-08-21T00:15:22;16.20;94.50
14733;DHT22;7457;50.960;6.830;2022-08-21T00:17:48;16.20;94.60
14733;DHT22;7457;50.960;6.830;2022-08-21T00:20:15;16.20;94.70
14733;DHT22;7457;50.960;6.830;2022-08-21T00:22:41;16.10;94.80
14733;DHT22;7457;50.960;6.830;2022-08-21T00:25:08;16.10;94.80
14733;DHT22;7457;50.960;6.830;2022-08-21T00:27:34;16.00;94.80
14733;DHT22;7457;50.960;6.830;2022-08-21T00:30:02;15.90;94.80
14733;DHT22;7457;50.960;6.830;2022-08-21T00:32:28;15.90;94.80
14733;DHT22;7457;50.960;6.830;2022-08-21T00:34:54;15.80;95.00
14733;DHT22;7457;50.960;6.830;2022-08-21T00:37:20;15.80;94.90
14733;DHT22;7457;50.960;6.830;2022-08-21T00:39:46;15.70;95.00
14733;DHT22;7457;50.960;6.830;2022-08-21T00:42:13;15.60;95.10
14733;DHT22;7457;50.960;6.830;2022-08-21T00:44:45;15.50;95.10
14733;DHT22;7457;50.960;6.830;2022-08-21T00:47:12;15.50;95.40
14733;DHT22;7457;50.960;6.830;2022-08-21T00:49:39;15.40;95.40
14733;DHT22;7457;50.960;6.830;2022-08-21T00:52:09;15.40;95.60
14733;DHT22;7457;50.960;6.830;2022-08-21T00:54:35;15.40;95.70
14733;DHT22;7457;50.960;6.830;2022-08-21T00:57:09;15.30;95.70
14733;DHT22;7457;50.960;6.830;2022-08-21T00:59:37;15.30;95.90
14733;DHT22;7457;50.960;6.830;2022-08-21T01:02:06;15.30;96.10
14733;DHT22;7457;50.960;6.830;2022-08-21T01:04:33;15.30;96.30
14733;DHT22;7457;50.960;6.830;2022-08-21T01:06:59;15.30;96.40
14733;DHT22;7457;50.960;6.830;2022-08-21T01:09:24;15.30;96.60
14733;DHT22;7457;50.960;6.830;2022-08-21T01:11:50;15.30;96.70
14733;DHT22;7457;50.960;6.830;2022-08-21T01:14:17;15.30;96.60
14733;DHT22;7457;50.960;6.830;2022-08-21T01:16:47;15.30;96.60
14733;DHT22;7457;50.960;6.830;2022-08-21T01:19:14;15.20;96.70
14733;DHT22;7457;50.960;6.830;2022-08-21T01:21:42;15.20;96.80
14733;DHT22;7457;50.960;6.830;2022-08-21T01:24:07;15.20;97.00
14733;DHT22;7457;50.960;6.830;2022-08-21T01:26:34;15.20;97.00
14733;DHT22;7457;50.960;6.830;2022-08-21T01:32:02;15.20;97.40
14733;DHT22;7457;50.960;6.830;2022-08-21T01:34:28;15.20;97.40
14733;DHT22;7457;50.960;6.830;2022-08-21T01:36:54;15.20;97.70
14733;DHT22;7457;50.960;6.830;2022-08-21T01:39:19;15.20;97.40
14733;DHT22;7457;50.960;6.830;2022-08-21T01:41:45;15.20;97.40
14733;DHT22;7457;50.960;6.830;2022-08-21T01:44:11;15.10;97.40
14733;DHT22;7457;50.960;6.830;2022-08-21T01:46:36;15.10;97.50
14733;DHT22;7457;50.960;6.830;2022-08-21T01:49:03;15.10;97.50
14733;DHT22;7457;50.960;6.830;2022-08-21T01:51:29;15.10;97.50
14733;DHT22;7457;50.960;6.830;2022-08-21T01:53:55;15.00;97.50
14733;DHT22;7457;50.960;6.830;2022-08-21T01:56:20;15.00;97.60
14733;DHT22;7457;50.960;6.830;2022-08-21T01:58:47;14.90;97.70
14733;DHT22;7457;50.960;6.830;2022-08-21T02:01:13;14.90;97.90
14733;DHT22;7457;50.960;6.830;2022-08-21T02:03:39;14.90;98.10
14733;DHT22;7457;50.960;6.830;2022-08-21T02:06:06;14.90;98.20
14733;DHT22;7457;50.960;6.830;2022-08-21T02:08:33;14.90;98.30
14733;DHT22;7457;50.960;6.830;2022-08-21T02:10:59;14.90;98.40
14733;DHT22;7457;50.960;6.830;2022-08-21T02:13:25;14.90;98.40
14733;DHT22;7457;50.960;6.830;2022-08-21T02:15:51;14.90;98.30
14733;DHT22;7457;50.960;6.830;2022-08-21T02:18:17;14.80;98.40
14733;DHT22;7457;50.960;6.830;2022-08-21T02:20:46;14.80;98.40
14733;DHT22;7457;50.960;6.830;2022-08-21T02:23:13;14.70;98.50
14733;DHT22;7457;50.960;6.830;2022-08-21T02:25:39;14.70;98.50
14733;DHT22;7457;50.960;6.830;2022-08-21T02:28:08;14.70;98.50
14733;DHT22;7457;50.960;6.830;2022-08-21T02:30:38;14.60;99.00
14733;DHT22;7457;50.960;6.830;2022-08-21T02:33:05;14.60;98.80
14733;DHT22;7457;50.960;6.830;2022-08-21T02:35:31;14.50;98.70
14733;DHT22;7457;50.960;6.830;2022-08-21T02:37:59;14.40;98.90
14733;DHT22;7457;50.960;6.830;2022-08-21T02:40:29;14.50;99.00
14733;DHT22;7457;50.960;6.830;2022-08-21T02:42:56;14.50;99.20
14733;DHT22;7457;50.960;6.830;2022-08-21T02:45:22;14.50;99.30
14733;DHT22;7457;50.960;6.830;2022-08-21T02:47:49;14.50;99.40
14733;DHT22;7457;50.960;6.830;2022-08-21T02:50:19;14.60;99.50
14733;DHT22;7457;50.960;6.830;2022-08-21T02:52:45;14.60;99.50
14733;DHT22;7457;50.960;6.830;2022-08-21T02:55:11;14.60;99.50
14733;DHT22;7457;50.960;6.830;2022-08-21T02:57:37;14.60;99.40
14733;DHT22;7457;50.960;6.830;2022-08-21T03:00:04;14.60;99.30
14733;DHT22;7457;50.960;6.830;2022-08-21T03:02:30;14.60;99.40
14733;DHT22;7457;50.960;6.830;2022-08-21T03:04:56;14.60;99.30
14733;DHT22;7457;50.960;6.830;2022-08-21T03:07:22;14.50;99.70
14733;DHT22;7457;50.960;6.830;2022-08-21T03:09:48;14.50;99.40
14733;DHT22;7457;50.960;6.830;2022-08-21T03:12:13;14.50;99.40
14733;DHT22;7457;50.960;6.830;2022-08-21T03:14:39;14.40;99.40
14733;DHT22;7457;50.960;6.830;2022-08-21T03:17:05;14.40;99.40
14733;DHT22;7457;50.960;6.830;2022-08-21T03:19:30;14.40;99.50
14733;DHT22;7457;50.960;6.830;2022-08-21T03:21:56;14.40;99.60
14733;DHT22;7457;50.960;6.830;2022-08-21T03:24:22;14.40;99.70
14733;DHT22;7457;50.960;6.830;2022-08-21T03:26:47;14.40;99.80
14733;DHT22;7457;50.960;6.830;2022-08-21T03:29:13;14.50;99.80
14733;DHT22;7457;50.960;6.830;2022-08-21T03:31:38;14.50;99.80
14733;DHT22;7457;50.960;6.830;2022-08-21T03:34:05;14.50;99.70
14733;DHT22;7457;50.960;6.830;2022-08-21T03:36:30;14.50;99.70
14733;DHT22;7457;50.960;6.830;2022-08-21T03:38:56;14.50;99.70
14733;DHT22;7457;50.960;6.830;2022-08-21T03:41:21;14.50;99.80
14733;DHT22;7457;50.960;6.830;2022-08-21T03:43:47;14.50;99.90
14733;DHT22;7457;50.960;6.830;2022-08-21T03:46:13;14.50;99.90
14733;DHT22;7457;50.960;6.830;2022-08-21T03:48:39;14.60;99.90
14733;DHT22;7457;50.960;6.830;2022-08-21T03:51:05;14.60;99.90
14733;DHT22;7457;50.960;6.830;2022-08-21T03:53:31;14.60;99.90
14733;DHT22;7457;50.960;6.830;2022-08-21T03:55:57;14.50;99.80
14733;DHT22;7457;50.960;6.830;2022-08-21T03:58:25;14.60;99.90
14733;DHT22;7457;50.960;6.830;2022-08-21T04:00:55;14.60;99.90
14733;DHT22;7457;50.960;6.830;2022-08-21T04:03:21;14.60;99.80
14733;DHT22;7457;50.960;6.830;2022-08-21T04:05:47;14.50;99.70
14733;DHT22;7457;50.960;6.830;2022-08-21T04:08:14;14.50;99.70
14733;DHT22;7457;50.960;6.830;2022-08-21T04:10:41;14.50;99.70
14733;DHT22;7457;50.960;6.830;2022-08-21T04:13:08;14.40;99.70
14733;DHT22;7457;50.960;6.830;2022-08-21T04:15:34;14.40;99.70
14733;DHT22;7457;50.960;6.830;2022-08-21T04:18:00;14.40;99.70
14733;DHT22;7457;50.960;6.830;2022-08-21T04:20:27;14.40;99.70
14733;DHT22;7457;50.960;6.830;2022-08-21T04:22:53;14.40;99.70
14733;DHT22;7457;50.960;6.830;2022-08-21T04:25:20;14.40;99.70
14733;DHT22;7457;50.960;6.830;2022-08-21T04:27:46;14.40;99.90
14733;DHT22;7457;50.960;6.830;2022-08-21T04:30:13;14.40;99.70
14733;DHT22;7457;50.960;6.830;2022-08-21T04:32:45;14.30;99.60
14733;DHT22;7457;50.960;6.830;2022-08-21T04:35:14;14.30;99.30
14733;DHT22;7457;50.960;6.830;2022-08-21T04:37:40;14.20;99.10
14733;DHT22;7457;50.960;6.830;2022-08-21T04:40:06;14.20;99.10
14733;DHT22;7457;50.960;6.830;2022-08-21T04:42:33;14.10;99.30
14733;DHT22;7457;50.960;6.830;2022-08-21T04:45:05;14.10;99.40
14733;DHT22;7457;50.960;6.830;2022-08-21T04:47:31;14.00;99.50
14733;DHT22;7457;50.960;6.830;2022-08-21T04:49:56;14.00;99.60
14733;DHT22;7457;50.960;6.830;2022-08-21T04:52:22;14.00;99.70
14733;DHT22;7457;50.960;6.830;2022-08-21T04:54:49;14.00;99.80
14733;DHT22;7457;50.960;6.830;2022-08-21T04:57:17;14.00;99.90
14733;DHT22;7457;50.960;6.830;2022-08-21T04:59:46;14.00;99.90
14733;DHT22;7457;50.960;6.830;2022-08-21T05:02:13;14.10;99.90
14733;DHT22;7457;50.960;6.830;2022-08-21T05:04:45;14.20;99.90
14733;DHT22;7457;50.960;6.830;2022-08-21T05:07:15;14.20;99.90
14733;DHT22;7457;50.960;6.830;2022-08-21T05:09:42;14.20;99.80
14733;DHT22;7457;50.960;6.830;2022-08-21T05:12:09;14.30;99.80
14733;DHT22;7457;50.960;6.830;2022-08-21T05:14:34;14.30;99.80
14733;DHT22;7457;50.960;6.830;2022-08-21T05:17:00;14.40;99.90
14733;DHT22;7457;50.960;6.830;2022-08-21T05:19:26;14.40;99.90
14733;DHT22;7457;50.960;6.830;2022-08-21T05:21:51;14.50;99.80
14733;DHT22;7457;50.960;6.830;2022-08-21T05:24:17;14.60;99.80
14733;DHT22;7457;50.960;6.830;2022-08-21T05:26:43;14.70;99.60
14733;DHT22;7457;50.960;6.830;2022-08-21T05:29:10;14.80;99.60
14733;DHT22;7457;50.960;6.830;2022-08-21T05:31:36;14.80;99.50
14733;DHT22;7457;50.960;6.830;2022-08-21T05:34:03;14.90;99.50
14733;DHT22;7457;50.960;6.830;2022-08-21T05:36:29;14.90;99.50
14733;DHT22;7457;50.960;6.830;2022-08-21T05:38:54;15.00;99.50
14733;DHT22;7457;50.960;6.830;2022-08-21T05:41:20;15.10;99.50
14733;DHT22;7457;50.960;6.830;2022-08-21T05:43:46;15.10;99.40
14733;DHT22;7457;50.960;6.830;2022-08-21T05:46:12;15.30;99.40
14733;DHT22;7457;50.960;6.830;2022-08-21T05:48:38;15.30;99.30
14733;DHT22;7457;50.960;6.830;2022-08-21T05:51:12;15.40;99.30
14733;DHT22;7457;50.960;6.830;2022-08-21T05:53:39;15.60;99.30
14733;DHT22;7457;50.960;6.830;2022-08-21T05:56:05;15.80;99.40
14733;DHT22;7457;50.960;6.830;2022-08-21T05:58:32;16.00;99.20
14733;DHT22;7457;50.960;6.830;2022-08-21T06:00:59;16.20;98.90
14733;DHT22;7457;50.960;6.830;2022-08-21T06:03:29;16.40;98.80
14733;DHT22;7457;50.960;6.830;2022-08-21T06:05:56;16.50;98.80
14733;DHT22;7457;50.960;6.830;2022-08-21T06:08:22;16.80;98.50
14733;DHT22;7457;50.960;6.830;2022-08-21T06:10:49;16.90;98.10
14733;DHT22;7457;50.960;6.830;2022-08-21T06:13:16;17.10;97.80
14733;DHT22;7457;50.960;6.830;2022-08-21T06:15:42;17.20;97.50
14733;DHT22;7457;50.960;6.830;2022-08-21T06:18:08;17.20;97.50
14733;DHT22;7457;50.960;6.830;2022-08-21T06:20:33;17.30;97.60
14733;DHT22;7457;50.960;6.830;2022-08-21T06:23:00;17.40;97.50
14733;DHT22;7457;50.960;6.830;2022-08-21T06:25:26;17.50;97.70
14733;DHT22;7457;50.960;6.830;2022-08-21T06:27:52;17.60;97.30
14733;DHT22;7457;50.960;6.830;2022-08-21T06:30:18;17.70;97.00
14733;DHT22;7457;50.960;6.830;2022-08-21T06:32:43;17.90;97.00
14733;DHT22;7457;50.960;6.830;2022-08-21T06:35:09;18.00;96.90
14733;DHT22;7457;50.960;6.830;2022-08-21T06:37:35;18.10;96.60
14733;DHT22;7457;50.960;6.830;2022-08-21T06:40:04;18.30;96.40
14733;DHT22;7457;50.960;6.830;2022-08-21T06:42:29;18.40;96.30
14733;DHT22;7457;50.960;6.830;2022-08-21T06:44:57;18.50;96.10
14733;DHT22;7457;50.960;6.830;2022-08-21T06:47:22;18.70;96.00
14733;DHT22;7457;50.960;6.830;2022-08-21T06:49:48;18.80;95.80
14733;DHT22;7457;50.960;6.830;2022-08-21T06:52:14;19.00;95.50
14733;DHT22;7457;50.960;6.830;2022-08-21T06:54:40;19.10;95.20
14733;DHT22;7457;50.960;6.830;2022-08-21T06:57:06;19.30;95.10
14733;DHT22;7457;50.960;6.830;2022-08-21T06:59:32;19.50;94.70
14733;DHT22;7457;50.960;6.830;2022-08-21T07:01:59;19.70;94.50
14733;DHT22;7457;50.960;6.830;2022-08-21T07:04:25;19.80;94.30
14733;DHT22;7457;50.960;6.830;2022-08-21T07:06:51;20.00;93.80
14733;DHT22;7457;50.960;6.830;2022-08-21T07:09:17;20.10;93.40
14733;DHT22;7457;50.960;6.830;2022-08-21T07:11:44;20.20;93.00
14733;DHT22;7457;50.960;6.830;2022-08-21T07:14:10;20.30;92.80
14733;DHT22;7457;50.960;6.830;2022-08-21T07:16:36;20.30;92.60
14733;DHT22;7457;50.960;6.830;2022-08-21T07:19:02;20.40;92.40
14733;DHT22;7457;50.960;6.830;2022-08-21T07:21:27;20.40;92.20
14733;DHT22;7457;50.960;6.830;2022-08-21T07:23:53;20.50;92.20
14733;DHT22;7457;50.960;6.830;2022-08-21T07:26:21;20.60;92.00
14733;DHT22;7457;50.960;6.830;2022-08-21T07:28:48;20.70;91.80
14733;DHT22;7457;50.960;6.830;2022-08-21T07:31:16;20.70;91.60
14733;DHT22;7457;50.960;6.830;2022-08-21T07:33:42;20.80;91.50
14733;DHT22;7457;50.960;6.830;2022-08-21T07:36:08;21.00;91.40
14733;DHT22;7457;50.960;6.830;2022-08-21T07:38:34;21.10;91.10
14733;DHT22;7457;50.960;6.830;2022-08-21T07:41:01;21.10;90.70
14733;DHT22;7457;50.960;6.830;2022-08-21T07:43:28;21.10;90.50
14733;DHT22;7457;50.960;6.830;2022-08-21T07:45:54;21.10;90.40
14733;DHT22;7457;50.960;6.830;2022-08-21T07:48:24;21.10;90.40
14733;DHT22;7457;50.960;6.830;2022-08-21T07:50:49;21.10;90.30
14733;DHT22;7457;50.960;6.830;2022-08-21T07:53:16;21.10;90.20
14733;DHT22;7457;50.960;6.830;2022-08-21T07:55:42;21.10;90.10
14733;DHT22;7457;50.960;6.830;2022-08-21T07:58:08;21.20;90.00
14733;DHT22;7457;50.960;6.830;2022-08-21T08:00:34;21.20;89.60
14733;DHT22;7457;50.960;6.830;2022-08-21T08:02:59;21.30;89.30
14733;DHT22;7457;50.960;6.830;2022-08-21T08:05:29;21.40;88.70
14733;DHT22;7457;50.960;6.830;2022-08-21T08:07:56;21.50;88.30
14733;DHT22;7457;50.960;6.830;2022-08-21T08:10:22;21.60;88.10
14733;DHT22;7457;50.960;6.830;2022-08-21T08:12:49;21.70;87.80
14733;DHT22;7457;50.960;6.830;2022-08-21T08:15:18;21.90;87.70
14733;DHT22;7457;50.960;6.830;2022-08-21T08:17:45;22.10;87.30
14733;DHT22;7457;50.960;6.830;2022-08-21T08:20:12;22.20;86.70
14733;DHT22;7457;50.960;6.830;2022-08-21T08:22:39;22.30;85.90
14733;DHT22;7457;50.960;6.830;2022-08-21T08:25:05;22.40;85.80
14733;DHT22;7457;50.960;6.830;2022-08-21T08:27:31;22.50;85.70
14733;DHT22;7457;50.960;6.830;2022-08-21T08:29:57;22.60;85.10
14733;DHT22;7457;50.960;6.830;2022-08-21T08:32:23;22.80;84.90
14733;DHT22;7457;50.960;6.830;2022-08-21T08:34:49;23.00;84.30
14733;DHT22;7457;50.960;6.830;2022-08-21T08:37:17;23.20;83.60
14733;DHT22;7457;50.960;6.830;2022-08-21T08:39:44;23.40;83.20
14733;DHT22;7457;50.960;6.830;2022-08-21T08:42:28;23.60;82.20
14733;DHT22;7457;50.960;6.830;2022-08-21T08:44:59;23.90;81.00
14733;DHT22;7457;50.960;6.830;2022-08-21T08:47:25;24.10;80.10
14733;DHT22;7457;50.960;6.830;2022-08-21T08:52:46;24.80;79.80
14733;DHT22;7457;50.960;6.830;2022-08-21T08:55:33;25.10;77.50
14733;DHT22;7457;50.960;6.830;2022-08-21T08:57:59;25.50;77.00
14733;DHT22;7457;50.960;6.830;2022-08-21T09:00:28;25.90;76.10
14733;DHT22;7457;50.960;6.830;2022-08-21T09:02:57;26.30;75.20
14733;DHT22;7457;50.960;6.830;2022-08-21T09:05:30;26.80;73.50
14733;DHT22;7457;50.960;6.830;2022-08-21T09:13:48;28.00;68.40
14733;DHT22;7457;50.960;6.830;2022-08-21T09:16:35;28.20;66.10
14733;DHT22;7457;50.960;6.830;2022-08-21T09:22:50;28.40;62.40
14733;DHT22;7457;50.960;6.830;2022-08-21T09:25:28;28.50;61.40
14733;DHT22;7457;50.960;6.830;2022-08-21T09:27:56;28.70;60.10
14733;DHT22;7457;50.960;6.830;2022-08-21T09:30:27;28.80;59.80
14733;DHT22;7457;50.960;6.830;2022-08-21T09:32:53;29.00;58.90
14733;DHT22;7457;50.960;6.830;2022-08-21T09:35:21;29.20;58.30
14733;DHT22;7457;50.960;6.830;2022-08-21T09:40:35;29.40;57.40
14733;DHT22;7457;50.960;6.830;2022-08-21T09:45:36;29.50;56.70
14733;DHT22;7457;50.960;6.830;2022-08-21T09:48:17;29.50;56.20
14733;DHT22;7457;50.960;6.830;2022-08-21T09:50:44;29.50;55.80
14733;DHT22;7457;50.960;6.830;2022-08-21T09:53:25;29.60;55.30
14733;DHT22;7457;50.960;6.830;2022-08-21T09:56:02;29.80;54.80
14733;DHT22;7457;50.960;6.830;2022-08-21T09:58:49;30.10;54.70
14733;DHT22;7457;50.960;6.830;2022-08-21T10:01:20;30.20;53.70
14733;DHT22;7457;50.960;6.830;2022-08-21T10:03:46;30.10;53.40
14733;DHT22;7457;50.960;6.830;2022-08-21T10:06:26;30.10;53.40
14733;DHT22;7457;50.960;6.830;2022-08-21T10:09:13;30.00;52.80
14733;DHT22;7457;50.960;6.830;2022-08-21T10:11:40;30.10;53.30
14733;DHT22;7457;50.960;6.830;2022-08-21T10:17:05;30.80;52.70
14733;DHT22;7457;50.960;6.830;2022-08-21T10:20:04;31.00;52.30
14733;DHT22;7457;50.960;6.830;2022-08-21T10:30:49;32.00;48.00
14733;DHT22;7457;50.960;6.830;2022-08-21T10:43:49;32.10;47.10
14733;DHT22;7457;50.960;6.830;2022-08-21T10:55:02;32.50;46.30
14733;DHT22;7457;50.960;6.830;2022-08-21T11:00:26;32.70;45.20
14733;DHT22;7457;50.960;6.830;2022-08-21T11:05:48;33.00;45.80
14733;DHT22;7457;50.960;6.830;2022-08-21T11:08:23;33.10;44.60
14733;DHT22;7457;50.960;6.830;2022-08-21T11:11:08;33.20;44.00
14733;DHT22;7457;50.960;6.830;2022-08-21T11:13:54;33.30;43.70
14733;DHT22;7457;50.960;6.830;2022-08-21T11:16:43;33.40;43.00
14733;DHT22;7457;50.960;6.830;2022-08-21T11:19:24;33.40;41.70
14733;DHT22;7457;50.960;6.830;2022-08-21T11:22:15;33.50;41.90
14733;DHT22;7457;50.960;6.830;2022-08-21T11:25:13;33.30;41.90
14733;DHT22;7457;50.960;6.830;2022-08-21T11:27:50;33.50;42.50
14733;DHT22;7457;50.960;6.830;2022-08-21T11:30:18;33.80;42.00
14733;DHT22;7457;50.960;6.830;2022-08-21T11:33:25;33.80;42.00
14733;DHT22;7457;50.960;6.830;2022-08-21T11:35:53;33.70;41.00
14733;DHT22;7457;50.960;6.830;2022-08-21T11:38:32;33.30;41.20
14733;DHT22;7457;50.960;6.830;2022-08-21T11:43:50;33.00;41.90
14733;DHT22;7457;50.960;6.830;2022-08-21T11:55:23;32.20;43.00
14733;DHT22;7457;50.960;6.830;2022-08-21T11:57:58;32.40;43.30
14733;DHT22;7457;50.960;6.830;2022-08-21T12:00:38;32.60;42.80
14733;DHT22;7457;50.960;6.830;2022-08-21T12:03:27;32.90;42.40
14733;DHT22;7457;50.960;6.830;2022-08-21T12:06:05;33.00;42.10
14733;DHT22;7457;50.960;6.830;2022-08-21T12:08:35;33.00;41.70
14733;DHT22;7457;50.960;6.830;2022-08-21T12:13:57;33.20;41.80
14733;DHT22;7457;50.960;6.830;2022-08-21T12:24:32;33.70;40.40
14733;DHT22;7457;50.960;6.830;2022-08-21T12:29:46;33.60;40.30
14733;DHT22;7457;50.960;6.830;2022-08-21T12:35:01;33.00;40.20
14733;DHT22;7457;50.960;6.830;2022-08-21T12:40:26;32.00;41.60
14733;DHT22;7457;50.960;6.830;2022-08-21T12:42:56;31.50;43.20
14733;DHT22;7457;50.960;6.830;2022-08-21T12:45:33;31.10;43.30
14733;DHT22;7457;50.960;6.830;2022-08-21T12:53:09;30.00;44.70
14733;DHT22;7457;50.960;6.830;2022-08-21T12:55:41;29.70;45.30
14733;DHT22;7457;50.960;6.830;2022-08-21T12:58:07;29.50;45.60
14733;DHT22;7457;50.960;6.830;2022-08-21T13:00:51;29.30;45.70
14733;DHT22;7457;50.960;6.830;2022-08-21T13:03:18;29.10;45.90
14733;DHT22;7457;50.960;6.830;2022-08-21T13:05:44;29.00;46.50
14733;DHT22;7457;50.960;6.830;2022-08-21T13:08:11;28.90;47.10
14733;DHT22;7457;50.960;6.830;2022-08-21T13:10:40;28.90;47.10
14733;DHT22;7457;50.960;6.830;2022-08-21T13:13:12;28.90;47.10
14733;DHT22;7457;50.960;6.830;2022-08-21T13:15:41;29.00;47.10
14733;DHT22;7457;50.960;6.830;2022-08-21T13:18:07;29.00;47.30
14733;DHT22;7457;50.960;6.830;2022-08-21T13:20:36;29.10;47.30
14733;DHT22;7457;50.960;6.830;2022-08-21T13:23:07;29.10;47.80
14733;DHT22;7457;50.960;6.830;2022-08-21T13:25:37;29.10;46.70
14733;DHT22;7457;50.960;6.830;2022-08-21T13:28:09;29.10;47.20
14733;DHT22;7457;50.960;6.830;2022-08-21T13:30:49;29.10;47.20
14733;DHT22;7457;50.960;6.830;2022-08-21T13:33:16;29.10;47.20
14733;DHT22;7457;50.960;6.830;2022-08-21T13:38:32;29.00;47.10
14733;DHT22;7457;50.960;6.830;2022-08-21T13:41:08;28.90;47.10
14733;DHT22;7457;50.960;6.830;2022-08-21T13:43:36;28.80;47.10
14733;DHT22;7457;50.960;6.830;2022-08-21T13:46:08;28.70;47.30
14733;DHT22;7457;50.960;6.830;2022-08-21T13:48:36;28.70;47.40
14733;DHT22;7457;50.960;6.830;2022-08-21T13:51:03;28.70;47.50
14733;DHT22;7457;50.960;6.830;2022-08-21T13:56:00;28.60;47.40
14733;DHT22;7457;50.960;6.830;2022-08-21T13:58:41;28.50;47.20
14733;DHT22;7457;50.960;6.830;2022-08-21T14:01:21;28.40;47.30
14733;DHT22;7457;50.960;6.830;2022-08-21T14:03:49;28.40;47.40
14733;DHT22;7457;50.960;6.830;2022-08-21T14:06:18;28.30;47.40
14733;DHT22;7457;50.960;6.830;2022-08-21T14:09:07;28.20;47.30
14733;DHT22;7457;50.960;6.830;2022-08-21T14:11:34;28.00;47.30
14733;DHT22;7457;50.960;6.830;2022-08-21T14:14:45;27.80;47.50
14733;DHT22;7457;50.960;6.830;2022-08-21T14:17:06;27.80;47.70
14733;DHT22;7457;50.960;6.830;2022-08-21T14:19:45;27.70;48.10
14733;DHT22;7457;50.960;6.830;2022-08-21T14:25:13;27.70;48.30
14733;DHT22;7457;50.960;6.830;2022-08-21T14:30:44;27.60;48.10
14733;DHT22;7457;50.960;6.830;2022-08-21T14:33:18;27.30;48.30
14733;DHT22;7457;50.960;6.830;2022-08-21T14:35:46;27.20;48.20
14733;DHT22;7457;50.960;6.830;2022-08-21T14:38:23;27.00;48.50
14733;DHT22;7457;50.960;6.830;2022-08-21T14:40:53;26.70;48.70
14733;DHT22;7457;50.960;6.830;2022-08-21T14:43:20;26.60;49.10
14733;DHT22;7457;50.960;6.830;2022-08-21T14:45:46;26.40;49.20
14733;DHT22;7457;50.960;6.830;2022-08-21T14:48:12;26.40;49.60
14733;DHT22;7457;50.960;6.830;2022-08-21T14:50:38;26.30;49.70
14733;DHT22;7457;50.960;6.830;2022-08-21T14:53:04;26.20;49.90
14733;DHT22;7457;50.960;6.830;2022-08-21T14:55:31;26.20;50.30
14733;DHT22;7457;50.960;6.830;2022-08-21T14:58:17;26.20;50.60
14733;DHT22;7457;50.960;6.830;2022-08-21T15:00:43;26.10;50.80
14733;DHT22;7457;50.960;6.830;2022-08-21T15:03:08;26.20;50.90
14733;DHT22;7457;50.960;6.830;2022-08-21T15:05:34;26.10;50.90
14733;DHT22;7457;50.960;6.830;2022-08-21T15:08:00;26.10;51.10
14733;DHT22;7457;50.960;6.830;2022-08-21T15:10:26;26.10;51.60
14733;DHT22;7457;50.960;6.830;2022-08-21T15:12:52;26.10;51.10
14733;DHT22;7457;50.960;6.830;2022-08-21T15:15:18;26.00;51.00
14733;DHT22;7457;50.960;6.830;2022-08-21T15:17:43;26.00;51.30
14733;DHT22;7457;50.960;6.830;2022-08-21T15:20:09;26.00;51.60
14733;DHT22;7457;50.960;6.830;2022-08-21T15:22:35;26.00;51.50
14733;DHT22;7457;50.960;6.830;2022-08-21T15:25:01;26.00;51.50
14733;DHT22;7457;50.960;6.830;2022-08-21T15:27:28;25.90;51.60
14733;DHT22;7457;50.960;6.830;2022-08-21T15:29:54;25.90;51.60
14733;DHT22;7457;50.960;6.830;2022-08-21T15:32:23;25.80;51.80
14733;DHT22;7457;50.960;6.830;2022-08-21T15:34:52;25.80;51.70
14733;DHT22;7457;50.960;6.830;2022-08-21T15:37:19;25.70;51.90
14733;DHT22;7457;50.960;6.830;2022-08-21T15:39:45;25.70;52.00
14733;DHT22;7457;50.960;6.830;2022-08-21T15:42:11;25.70;52.00
14733;DHT22;7457;50.960;6.830;2022-08-21T15:44:42;25.70;52.00
14733;DHT22;7457;50.960;6.830;2022-08-21T15:47:19;25.80;52.10
14733;DHT22;7457;50.960;6.830;2022-08-21T15:49:46;25.80;51.90
14733;DHT22;7457;50.960;6.830;2022-08-21T15:52:16;25.80;51.80
14733;DHT22;7457;50.960;6.830;2022-08-21T15:54:42;25.90;51.90
14733;DHT22;7457;50.960;6.830;2022-08-21T15:57:12;25.90;52.00
14733;DHT22;7457;50.960;6.830;2022-08-21T15:59:44;25.90;51.80
14733;DHT22;7457;50.960;6.830;2022-08-21T16:02:15;26.00;51.80
14733;DHT22;7457;50.960;6.830;2022-08-21T16:04:43;26.00;51.70
14733;DHT22;7457;50.960;6.830;2022-08-21T16:07:08;26.00;51.50
14733;DHT22;7457;50.960;6.830;2022-08-21T16:09:35;26.00;51.20
14733;DHT22;7457;50.960;6.830;2022-08-21T16:12:00;26.00;50.90
14733;DHT22;7457;50.960;6.830;2022-08-21T16:14:28;26.00;50.90
14733;DHT22;7457;50.960;6.830;2022-08-21T16:16:55;26.00;50.80
14733;DHT22;7457;50.960;6.830;2022-08-21T16:19:21;26.00;50.80
14733;DHT22;7457;50.960;6.830;2022-08-21T16:21:47;26.00;50.70
14733;DHT22;7457;50.960;6.830;2022-08-21T16:24:13;26.00;50.70
14733;DHT22;7457;50.960;6.830;2022-08-21T16:26:38;26.10;50.70
14733;DHT22;7457;50.960;6.830;2022-08-21T16:29:05;26.10;50.80
14733;DHT22;7457;50.960;6.830;2022-08-21T16:31:32;26.10;50.80
14733;DHT22;7457;50.960;6.830;2022-08-21T16:33:58;26.00;50.80
14733;DHT22;7457;50.960;6.830;2022-08-21T16:36:26;26.00;51.00
14733;DHT22;7457;50.960;6.830;2022-08-21T16:38:52;26.00;51.20
14733;DHT22;7457;50.960;6.830;2022-08-21T16:41:20;25.90;51.40
14733;DHT22;7457;50.960;6.830;2022-08-21T16:43:46;25.90;51.60
14733;DHT22;7457;50.960;6.830;2022-08-21T16:46:14;25.90;51.80
14733;DHT22;7457;50.960;6.830;2022-08-21T16:48:41;25.80;51.90
14733;DHT22;7457;50.960;6.830;2022-08-21T16:51:10;25.80;52.30
14733;DHT22;7457;50.960;6.830;2022-08-21T16:53:36;25.70;52.40
14733;DHT22;7457;50.960;6.830;2022-08-21T16:56:03;25.70;52.70
14733;DHT22;7457;50.960;6.830;2022-08-21T16:58:31;25.70;52.70
14733;DHT22;7457;50.960;6.830;2022-08-21T17:00:59;25.60;52.60
14733;DHT22;7457;50.960;6.830;2022-08-21T17:03:30;25.60;52.70
14733;DHT22;7457;50.960;6.830;2022-08-21T17:05:57;25.50;52.80
14733;DHT22;7457;50.960;6.830;2022-08-21T17:08:23;25.40;52.90
14733;DHT22;7457;50.960;6.830;2022-08-21T17:10:49;25.30;53.00
14733;DHT22;7457;50.960;6.830;2022-08-21T17:13:16;25.30;53.10
14733;DHT22;7457;50.960;6.830;2022-08-21T17:15:42;25.20;53.10
14733;DHT22;7457;50.960;6.830;2022-08-21T17:18:15;25.10;53.90
14733;DHT22;7457;50.960;6.830;2022-08-21T17:20:41;25.00;53.40
14733;DHT22;7457;50.960;6.830;2022-08-21T17:23:07;25.00;53.40
14733;DHT22;7457;50.960;6.830;2022-08-21T17:25:36;24.90;53.40
14733;DHT22;7457;50.960;6.830;2022-08-21T17:28:04;24.80;53.50
14733;DHT22;7457;50.960;6.830;2022-08-21T17:30:30;24.80;53.60
14733;DHT22;7457;50.960;6.830;2022-08-21T17:32:57;24.70;53.50
14733;DHT22;7457;50.960;6.830;2022-08-21T17:35:23;24.70;53.70
14733;DHT22;7457;50.960;6.830;2022-08-21T17:37:49;24.60;53.60